createdAt,value
2019-05-18T00:02:00.417Z,30.10
2019-05-18T00:04:27.448Z,28.23
2019-05-18T00:06:54.828Z,26.40
2019-05-18T00:09:21.998Z,25.48
2019-05-18T00:11:49.146Z,26.45
2019-05-18T00:14:16.447Z,24.07
2019-05-18T00:16:43.473Z,22.37
2019-05-18T00:19:11.128Z,22.62
2019-05-18T00:21:38.443Z,23.95
2019-05-18T00:24:05.692Z,24.52
2019-05-18T00:26:33.127Z,25.15
2019-05-18T00:29:00.075Z,25.23
2019-05-18T00:31:29.477Z,23.45
2019-05-18T00:33:56.814Z,23.45
2019-05-18T00:36:24.460Z,24.05
2019-05-18T00:38:51.505Z,21.87
2019-05-18T00:41:18.719Z,22.10
2019-05-18T00:43:45.975Z,20.37
2019-05-18T00:46:13.079Z,22.15
2019-05-18T00:48:40.589Z,21.37
2019-05-18T00:51:07.784Z,23.50
2019-05-18T00:53:35.449Z,25.90
2019-05-18T00:56:02.911Z,21.87
2019-05-18T00:58:30.023Z,18.30
2019-05-18T01:00:58.602Z,18.92
2019-05-18T01:03:25.828Z,17.85
2019-05-18T01:05:53.583Z,17.23
2019-05-18T01:08:20.833Z,17.85
2019-05-18T01:10:48.606Z,18.50
2019-05-18T01:13:15.930Z,16.97
2019-05-18T01:15:43.727Z,16.12
2019-05-18T01:18:11.157Z,16.90
2019-05-18T01:20:38.694Z,19.20
2019-05-18T01:23:06.569Z,19.25
2019-05-18T01:25:33.800Z,17.02
2019-05-18T01:28:00.994Z,15.43
2019-05-18T01:30:28.535Z,14.63
2019-05-18T01:32:56.575Z,15.25
2019-05-18T01:35:23.863Z,14.93
2019-05-18T01:37:51.261Z,14.98
2019-05-18T01:40:19.605Z,17.10
2019-05-18T01:42:46.947Z,18.02
2019-05-18T01:45:17.474Z,20.15
2019-05-18T01:47:45.550Z,21.77
2019-05-18T01:50:14.016Z,21.02
2019-05-18T01:52:41.118Z,20.08
2019-05-18T01:55:09.001Z,19.80
2019-05-18T01:57:36.422Z,19.42
2019-05-18T02:00:05.062Z,16.87
2019-05-18T02:02:33.234Z,19.75
2019-05-18T02:05:05.748Z,18.65
2019-05-18T02:07:34.909Z,20.12
2019-05-18T02:10:04.012Z,20.30
2019-05-18T02:12:31.307Z,19.95
2019-05-18T02:14:58.548Z,19.05
2019-05-18T02:17:44.243Z,19.80
2019-05-18T02:20:12.079Z,21.10
2019-05-18T02:22:39.194Z,21.45
2019-05-18T02:25:06.644Z,21.40
2019-05-18T02:27:33.758Z,22.37
2019-05-18T02:30:01.881Z,22.85
2019-05-18T02:32:29.123Z,22.50
2019-05-18T02:34:56.477Z,20.88
2019-05-18T02:37:23.726Z,19.07
2019-05-18T02:39:54.061Z,17.77
2019-05-18T02:42:21.339Z,17.05
2019-05-18T02:44:48.665Z,15.80
2019-05-18T02:47:15.764Z,17.07
2019-05-18T02:49:42.845Z,17.17
2019-05-18T02:52:10.632Z,17.73
2019-05-18T02:54:40.382Z,18.70
2019-05-18T02:57:07.825Z,18.80
2019-05-18T02:59:35.246Z,16.50
2019-05-18T03:02:02.576Z,17.23
2019-05-18T03:04:29.819Z,17.50
2019-05-18T03:06:57.654Z,18.05
2019-05-18T03:09:24.904Z,20.62
2019-05-18T03:11:52.330Z,21.87
2019-05-18T03:14:19.925Z,20.05
2019-05-18T03:16:47.062Z,20.95
2019-05-18T03:19:14.476Z,20.15
2019-05-18T03:21:44.286Z,19.37
2019-05-18T03:24:11.633Z,19.48
2019-05-18T03:26:40.563Z,19.42
2019-05-18T03:29:07.792Z,18.98
2019-05-18T03:31:35.089Z,19.32
2019-05-18T03:34:02.343Z,18.73
2019-05-18T03:36:29.649Z,17.75
2019-05-18T03:38:56.660Z,19.23
2019-05-18T03:41:23.978Z,18.10
2019-05-18T03:43:51.114Z,18.82
2019-05-18T03:46:18.442Z,18.32
2019-05-18T03:48:45.968Z,16.48
2019-05-18T03:51:13.344Z,15.72
2019-05-18T03:53:40.616Z,16.40
2019-05-18T03:56:07.522Z,17.95
2019-05-18T03:58:34.512Z,18.82
2019-05-18T04:01:01.666Z,18.82
2019-05-18T04:03:29.747Z,17.02
2019-05-18T04:05:56.649Z,14.65
2019-05-18T04:08:24.975Z,16.45
2019-05-18T04:10:51.852Z,21.45
2019-05-18T04:13:19.241Z,17.15
2019-05-18T04:15:46.228Z,17.77
2019-05-18T04:18:13.128Z,17.17
2019-05-18T04:20:40.075Z,19.52
2019-05-18T04:23:07.352Z,18.70
2019-05-18T04:25:35.587Z,18.37
2019-05-18T04:28:02.795Z,16.30
2019-05-18T04:30:29.876Z,21.93
2019-05-18T04:32:56.981Z,14.63
2019-05-18T04:35:23.927Z,16.17
2019-05-18T04:37:50.834Z,17.57
2019-05-18T04:40:18.280Z,15.78
2019-05-18T04:42:45.383Z,16.25
2019-05-18T04:45:12.889Z,16.10
2019-05-18T04:47:40.170Z,16.75
2019-05-18T04:50:07.552Z,15.53
2019-05-18T04:52:34.527Z,14.75
2019-05-18T04:55:01.582Z,13.08
2019-05-18T04:57:28.597Z,13.20
2019-05-18T04:59:55.696Z,13.30
2019-05-18T05:02:23.444Z,13.90
2019-05-18T05:04:54.121Z,14.40
2019-05-18T05:07:19.768Z,12.82
2019-05-18T05:09:46.963Z,13.03
2019-05-18T05:12:14.056Z,11.95
2019-05-18T05:14:41.842Z,13.45
2019-05-18T05:17:09.127Z,13.65
2019-05-18T05:19:36.065Z,13.65
2019-05-18T05:22:03.509Z,12.65
2019-05-18T05:24:30.943Z,13.68
2019-05-18T05:26:58.156Z,11.73
2019-05-18T05:29:25.324Z,11.65
2019-05-18T05:31:52.167Z,10.60
2019-05-18T05:34:19.611Z,10.90
2019-05-18T05:36:46.724Z,10.00
2019-05-18T05:39:15.328Z,11.85
2019-05-18T05:41:42.533Z,12.33
2019-05-18T05:44:09.609Z,11.95
2019-05-18T05:46:37.432Z,12.07
2019-05-18T05:49:04.684Z,13.00
2019-05-18T05:51:31.803Z,13.00
2019-05-18T05:53:58.799Z,15.13
2019-05-18T05:56:26.096Z,16.57
2019-05-18T05:58:54.122Z,17.98
2019-05-18T06:01:21.474Z,19.87
2019-05-18T06:03:48.784Z,22.15
2019-05-18T06:06:15.841Z,24.60
2019-05-18T06:08:43.131Z,24.05
2019-05-18T06:11:10.170Z,23.73
2019-05-18T06:13:37.509Z,24.18
2019-05-18T06:16:04.625Z,23.30
2019-05-18T06:18:32.036Z,23.65
2019-05-18T06:20:59.282Z,23.50
2019-05-18T06:23:26.284Z,21.90
2019-05-18T06:25:53.493Z,21.50
2019-05-18T06:28:20.573Z,18.92
2019-05-18T06:30:47.853Z,17.62
2019-05-18T06:33:15.084Z,17.87
2019-05-18T06:35:42.134Z,21.68
2019-05-18T06:38:09.302Z,18.20
2019-05-18T06:40:36.299Z,13.85
2019-05-18T06:43:05.480Z,15.40
2019-05-18T06:45:32.699Z,14.63
2019-05-18T06:47:59.753Z,14.73
2019-05-18T06:50:29.178Z,14.33
2019-05-18T06:52:56.851Z,13.62
2019-05-18T06:55:25.367Z,14.63
2019-05-18T06:57:56.694Z,13.90
2019-05-18T07:00:23.861Z,13.43
2019-05-18T07:02:50.806Z,14.03
2019-05-18T07:05:18.007Z,12.60
2019-05-18T07:07:45.061Z,12.07
2019-05-18T07:10:15.579Z,13.43
2019-05-18T07:12:42.536Z,12.45
2019-05-18T07:15:11.738Z,11.05
2019-05-18T07:17:39.193Z,11.08
2019-05-18T07:20:06.991Z,9.80
2019-05-18T07:22:34.011Z,9.58
2019-05-18T07:25:01.573Z,9.58
2019-05-18T07:27:28.974Z,8.45
2019-05-18T07:29:56.031Z,7.87
2019-05-18T07:32:23.021Z,7.92
2019-05-18T07:34:50.376Z,9.18
2019-05-18T07:37:17.363Z,7.95
2019-05-18T07:39:44.428Z,7.50
2019-05-18T07:42:11.675Z,6.80
2019-05-18T07:44:38.601Z,4.50
2019-05-18T07:47:05.727Z,5.20
2019-05-18T07:49:32.779Z,4.22
2019-05-18T07:52:00.243Z,3.90
2019-05-18T07:54:27.228Z,5.97
2019-05-18T07:56:54.545Z,6.30
2019-05-18T07:59:21.635Z,5.37
2019-05-18T08:01:49.398Z,3.80
2019-05-18T08:04:16.653Z,3.05
2019-05-18T08:06:44.144Z,2.98
2019-05-18T08:09:11.426Z,2.60
2019-05-18T08:11:38.764Z,2.35
2019-05-18T08:14:05.886Z,3.15
2019-05-18T08:16:33.229Z,2.20
2019-05-18T08:19:00.527Z,2.30
2019-05-18T08:21:27.568Z,2.85
2019-05-18T08:23:54.842Z,2.58
2019-05-18T08:26:21.953Z,2.83
2019-05-18T08:28:48.835Z,2.60
2019-05-18T08:31:16.244Z,2.95
2019-05-18T08:33:43.444Z,2.30
2019-05-18T08:36:10.877Z,2.80
2019-05-18T08:38:37.887Z,2.65
2019-05-18T08:41:05.147Z,2.87
2019-05-18T08:43:32.265Z,2.22
2019-05-18T08:45:59.432Z,2.47
2019-05-18T08:48:26.733Z,2.92
2019-05-18T08:50:53.960Z,2.50
2019-05-18T08:53:21.244Z,2.80
2019-05-18T08:55:48.260Z,2.90
2019-05-18T08:58:15.280Z,2.70
2019-05-18T09:00:42.331Z,2.80
2019-05-18T09:03:09.342Z,3.08
2019-05-18T09:05:36.668Z,2.92
2019-05-18T09:08:03.690Z,2.80
2019-05-18T09:10:30.751Z,2.95
2019-05-18T09:12:57.886Z,3.20
2019-05-18T09:15:25.160Z,2.80
2019-05-18T09:17:52.141Z,2.90
2019-05-18T09:20:19.526Z,3.08
2019-05-18T09:22:46.614Z,2.75
2019-05-18T09:25:14.455Z,3.00
2019-05-18T09:27:41.821Z,3.00
2019-05-18T09:30:10.707Z,3.20
2019-05-18T09:32:38.152Z,3.15
2019-05-18T09:35:07.195Z,3.40
2019-05-18T09:37:34.128Z,3.30
2019-05-18T09:40:01.957Z,3.30
2019-05-18T09:42:29.419Z,3.55
2019-05-18T09:44:56.726Z,3.15
2019-05-18T09:47:23.760Z,3.80
2019-05-18T09:49:50.721Z,3.50
2019-05-18T09:52:18.180Z,3.30
2019-05-18T09:54:45.328Z,3.00
2019-05-18T09:57:12.476Z,3.42
2019-05-18T09:59:39.882Z,3.20
2019-05-18T10:02:07.028Z,3.15
2019-05-18T10:04:34.187Z,2.85
2019-05-18T10:07:01.211Z,3.05
2019-05-18T10:09:38.547Z,3.30
2019-05-18T10:11:57.584Z,3.52
2019-05-18T10:14:24.765Z,2.87
2019-05-18T10:16:51.677Z,3.17
2019-05-18T10:19:18.696Z,3.15
2019-05-18T10:21:45.996Z,3.22
2019-05-18T10:24:13.321Z,2.98
2019-05-18T10:26:40.556Z,3.10
2019-05-18T10:29:07.675Z,3.33
2019-05-18T10:31:34.672Z,3.22
2019-05-18T10:34:02.315Z,3.02
2019-05-18T10:36:29.490Z,2.98
2019-05-18T10:38:56.599Z,2.87
2019-05-18T10:41:23.657Z,3.10
2019-05-18T10:43:50.728Z,2.87
2019-05-18T10:46:18.092Z,2.98
2019-05-18T10:48:45.391Z,2.87
2019-05-18T10:51:12.591Z,2.60
2019-05-18T10:53:39.620Z,2.80
2019-05-18T10:56:06.744Z,2.98
2019-05-18T10:58:33.829Z,3.20
2019-05-18T11:01:01.025Z,2.50
2019-05-18T11:03:28.339Z,2.87
2019-05-18T11:05:55.427Z,2.95
2019-05-18T11:08:22.498Z,3.15
2019-05-18T11:10:49.391Z,2.90
2019-05-18T11:13:17.323Z,2.92
2019-05-18T11:15:44.629Z,3.35
2019-05-18T11:18:11.987Z,3.25
2019-05-18T11:20:39.120Z,3.15
2019-05-18T11:23:06.260Z,3.12
2019-05-18T11:25:33.236Z,3.20
2019-05-18T11:28:00.507Z,3.17
2019-05-18T11:30:27.662Z,3.10
2019-05-18T11:32:54.773Z,3.00
2019-05-18T11:35:22.047Z,3.00
2019-05-18T11:37:49.358Z,3.52
2019-05-18T11:40:17.593Z,2.70
2019-05-18T11:42:44.732Z,3.10
2019-05-18T11:45:15.204Z,3.20
2019-05-18T11:47:42.719Z,3.25
2019-05-18T11:50:10.728Z,3.05
2019-05-18T11:52:38.041Z,3.12
2019-05-18T11:55:06.260Z,3.00
2019-05-18T11:57:33.455Z,2.80
2019-05-18T12:00:01.044Z,3.33
2019-05-18T12:02:28.965Z,3.60
2019-05-18T12:04:56.228Z,3.35
2019-05-18T12:07:23.219Z,3.47
2019-05-18T12:09:50.459Z,3.20
2019-05-18T12:12:17.759Z,3.27
2019-05-18T12:14:45.176Z,2.92
2019-05-18T12:17:12.506Z,2.98
2019-05-18T12:19:39.623Z,3.35
2019-05-18T12:22:06.723Z,3.00
2019-05-18T12:24:33.884Z,3.05
2019-05-18T12:27:01.202Z,2.77
2019-05-18T12:29:28.207Z,3.02
2019-05-18T12:31:55.242Z,3.10
2019-05-18T12:34:22.238Z,3.02
2019-05-18T12:36:49.652Z,3.42
2019-05-18T12:39:16.899Z,4.03
2019-05-18T12:41:43.835Z,5.47
2019-05-18T12:44:10.968Z,4.42
2019-05-18T12:46:37.950Z,4.78
2019-05-18T12:49:05.057Z,4.53
2019-05-18T12:51:32.223Z,5.40
2019-05-18T12:53:59.699Z,15.13
2019-05-18T12:56:26.810Z,14.20
2019-05-18T12:58:54.019Z,6.50
2019-05-18T13:01:21.115Z,5.97
2019-05-18T13:03:48.147Z,5.97
2019-05-18T13:06:15.040Z,5.55
2019-05-18T13:08:42.709Z,6.00
2019-05-18T13:11:09.604Z,5.90
2019-05-18T13:13:37.000Z,6.25
2019-05-18T13:16:04.177Z,6.50
2019-05-18T13:18:31.213Z,5.37
2019-05-18T13:20:58.312Z,5.80
2019-05-18T13:23:25.614Z,5.60
2019-05-18T13:25:52.683Z,5.30
2019-05-18T13:28:19.779Z,6.03
2019-05-18T13:30:47.151Z,5.22
2019-05-18T13:33:14.156Z,5.95
2019-05-18T13:35:41.561Z,5.40
2019-05-18T13:38:08.715Z,5.87
2019-05-18T13:40:35.827Z,5.33
2019-05-18T13:43:03.036Z,6.10
2019-05-18T13:45:30.036Z,5.70
2019-05-18T13:47:57.313Z,5.70
2019-05-18T13:50:24.403Z,6.58
2019-05-18T13:52:51.959Z,5.85
2019-05-18T13:55:19.294Z,6.15
2019-05-18T13:57:46.720Z,6.12
2019-05-18T14:00:16.500Z,6.47
2019-05-18T14:02:43.828Z,5.85
2019-05-18T14:05:12.371Z,5.97
2019-05-18T14:07:39.741Z,6.97
2019-05-18T14:10:07.888Z,5.70
2019-05-18T14:12:35.157Z,6.47
2019-05-18T14:15:04.504Z,6.67
2019-05-18T14:17:32.055Z,6.28
2019-05-18T14:19:59.102Z,7.15
2019-05-18T14:22:26.310Z,6.92
2019-05-18T14:24:53.219Z,6.60
2019-05-18T14:27:20.484Z,8.98
2019-05-18T14:29:47.505Z,10.65
2019-05-18T14:32:14.609Z,8.63
2019-05-18T14:34:41.556Z,8.13
2019-05-18T14:37:08.507Z,8.88
2019-05-18T14:39:37.172Z,8.18
2019-05-18T14:42:04.285Z,8.90
2019-05-18T14:44:31.590Z,7.25
2019-05-18T14:46:58.717Z,6.92
2019-05-18T14:49:26.118Z,7.20
2019-05-18T14:51:53.087Z,4.40
2019-05-18T14:54:24.917Z,5.30
2019-05-18T14:56:49.784Z,5.17
2019-05-18T14:59:16.967Z,4.72
2019-05-18T15:01:44.220Z,4.78
2019-05-18T15:04:11.551Z,6.50
2019-05-18T15:06:38.674Z,5.92
2019-05-18T15:09:05.901Z,6.15
2019-05-18T15:11:33.062Z,7.25
2019-05-18T15:14:00.494Z,9.60
2019-05-18T15:16:28.626Z,10.30
2019-05-18T15:18:55.848Z,10.00
2019-05-18T15:21:23.330Z,9.35
2019-05-18T15:23:50.386Z,9.75
2019-05-18T15:26:17.825Z,9.88
2019-05-18T15:28:44.822Z,9.88
2019-05-18T15:31:11.775Z,11.48
2019-05-18T15:33:39.177Z,10.63
2019-05-18T15:36:06.557Z,10.40
2019-05-18T15:38:33.543Z,11.93
2019-05-18T15:41:00.794Z,9.63
2019-05-18T15:43:27.802Z,10.28
2019-05-18T15:45:55.020Z,10.82
2019-05-18T15:48:22.132Z,10.05
2019-05-18T15:50:49.591Z,9.98
2019-05-18T15:53:17.097Z,8.60
2019-05-18T15:55:44.390Z,8.90
2019-05-18T15:58:11.424Z,10.93
2019-05-18T16:00:38.625Z,19.73
2019-05-18T16:03:06.048Z,17.15
2019-05-18T16:05:33.347Z,22.82
2019-05-18T16:08:00.683Z,230.70
2019-05-18T16:10:27.596Z,91.75
2019-05-18T16:12:54.735Z,38.08
2019-05-18T16:15:22.091Z,15.25
2019-05-18T16:17:49.244Z,12.40
2019-05-18T16:20:16.870Z,10.78
2019-05-18T16:22:44.569Z,8.88
2019-05-18T16:25:12.168Z,24.10
2019-05-18T16:27:39.158Z,29.23
2019-05-18T16:30:07.795Z,50.98
2019-05-18T16:32:35.393Z,32.70
2019-05-18T16:35:07.574Z,24.67
2019-05-18T16:37:34.861Z,20.12
2019-05-18T16:40:02.807Z,14.05
2019-05-18T16:42:29.934Z,10.25
2019-05-18T16:44:57.010Z,12.15
2019-05-18T16:47:24.033Z,42.60
2019-05-18T16:49:51.370Z,37.98
2019-05-18T16:52:18.672Z,20.80
2019-05-18T16:54:46.897Z,19.87
2019-05-18T16:57:15.007Z,13.08
2019-05-18T16:59:42.111Z,9.23
2019-05-18T17:02:09.441Z,29.48
2019-05-18T17:04:36.487Z,48.13
2019-05-18T17:07:04.092Z,24.32
2019-05-18T17:09:32.052Z,16.67
2019-05-18T17:11:58.940Z,16.23
2019-05-18T17:14:26.107Z,12.65
2019-05-18T17:16:53.067Z,9.23
2019-05-18T17:19:20.217Z,11.48
2019-05-18T17:21:47.424Z,14.68
2019-05-18T17:24:14.753Z,10.88
2019-05-18T17:26:52.277Z,16.37
2019-05-18T17:29:11.054Z,19.98
2019-05-18T17:31:38.070Z,16.05
2019-05-18T17:34:05.308Z,15.15
2019-05-18T17:36:32.420Z,14.25
2019-05-18T17:38:59.716Z,14.38
2019-05-18T17:41:26.878Z,16.12
2019-05-18T17:43:54.172Z,16.62
2019-05-18T17:46:21.396Z,18.23
2019-05-18T17:48:48.515Z,19.17
2019-05-18T17:51:15.767Z,41.18
2019-05-18T17:53:42.913Z,73.85
2019-05-18T17:56:09.914Z,75.05
2019-05-18T17:58:36.839Z,45.15
2019-05-18T18:01:03.906Z,34.25
2019-05-18T18:03:31.249Z,50.23
2019-05-18T18:05:58.379Z,23.27
2019-05-18T18:08:25.435Z,29.20
2019-05-18T18:10:52.445Z,66.55
2019-05-18T18:13:19.663Z,41.98
2019-05-18T18:15:46.667Z,45.95
2019-05-18T18:18:14.294Z,29.45
2019-05-18T18:20:41.289Z,30.70
2019-05-18T18:23:08.799Z,33.42
2019-05-18T18:25:35.668Z,37.13
2019-05-18T18:28:03.277Z,39.18
2019-05-18T18:30:30.487Z,38.73
2019-05-18T18:32:58.439Z,34.90
2019-05-18T18:35:25.485Z,35.33
2019-05-18T18:37:52.327Z,37.23
2019-05-18T18:40:19.791Z,40.70
2019-05-18T18:42:46.816Z,41.90
2019-05-18T18:45:15.041Z,38.48
2019-05-18T18:47:42.248Z,38.65
2019-05-18T18:50:09.996Z,37.03
2019-05-18T18:52:37.263Z,38.63
2019-05-18T18:55:06.944Z,40.60
2019-05-18T18:57:41.081Z,40.03
2019-05-18T19:00:05.927Z,38.40
2019-05-18T19:02:33.042Z,38.65
2019-05-18T19:05:00.198Z,39.33
2019-05-18T19:07:27.158Z,39.35
2019-05-18T19:09:54.214Z,44.15
2019-05-18T19:12:21.263Z,39.23
2019-05-18T19:14:48.669Z,22.95
2019-05-18T19:17:16.227Z,14.87
2019-05-18T19:19:43.338Z,12.70
2019-05-18T19:22:10.360Z,13.08
2019-05-18T19:24:37.525Z,12.75
2019-05-18T19:27:04.612Z,11.20
2019-05-18T19:29:32.536Z,11.08
2019-05-18T19:31:59.859Z,17.17
2019-05-18T19:34:26.895Z,20.80
2019-05-18T19:36:54.555Z,32.23
2019-05-18T19:39:23.074Z,32.55
2019-05-18T19:41:50.385Z,34.58
2019-05-18T19:44:17.382Z,32.80
2019-05-18T19:46:44.329Z,32.78
2019-05-18T19:49:11.469Z,31.97
2019-05-18T19:51:38.666Z,29.55
2019-05-18T19:54:05.816Z,36.68
2019-05-18T19:56:39.719Z,35.70
2019-05-18T19:59:02.396Z,38.42
2019-05-18T20:01:30.055Z,39.27
2019-05-18T20:03:57.523Z,42.23
2019-05-18T20:06:24.827Z,40.45
2019-05-18T20:08:52.097Z,37.15
2019-05-18T20:11:19.230Z,34.38
2019-05-18T20:13:46.290Z,33.98
2019-05-18T20:16:13.212Z,35.52
2019-05-18T20:18:40.505Z,38.25
2019-05-18T20:21:07.553Z,42.88
2019-05-18T20:23:34.482Z,45.25
2019-05-18T20:26:01.598Z,44.15
2019-05-18T20:28:28.561Z,46.60
2019-05-18T20:30:55.737Z,42.30
2019-05-18T20:33:23.104Z,40.17
2019-05-18T20:35:50.600Z,42.80
2019-05-18T20:38:17.684Z,42.35
2019-05-18T20:40:44.863Z,39.15
2019-05-18T20:43:12.290Z,39.03
2019-05-18T20:45:39.343Z,39.88
2019-05-18T20:48:06.614Z,40.48
2019-05-18T20:50:33.749Z,41.48
2019-05-18T20:53:00.668Z,39.65
2019-05-18T20:55:28.061Z,40.75
2019-05-18T20:57:57.189Z,41.02
2019-05-18T21:00:24.202Z,39.85
2019-05-18T21:02:51.197Z,36.83
2019-05-18T21:05:18.450Z,36.65
2019-05-18T21:07:45.483Z,36.10
2019-05-18T21:10:12.906Z,34.27
2019-05-18T21:12:39.931Z,37.35
2019-05-18T21:15:08.712Z,36.85
2019-05-18T21:17:35.997Z,34.50
2019-05-18T21:20:04.821Z,30.50
2019-05-18T21:22:31.767Z,30.92
2019-05-18T21:24:59.079Z,28.40
2019-05-18T21:27:25.988Z,27.82
2019-05-18T21:29:53.246Z,27.50
2019-05-18T21:32:20.332Z,28.30
2019-05-18T21:34:47.257Z,30.65
2019-05-18T21:37:14.321Z,30.77
2019-05-18T21:39:41.480Z,29.23
2019-05-18T21:42:08.558Z,29.10
2019-05-18T21:44:35.787Z,30.48
2019-05-18T21:47:03.008Z,30.12
2019-05-18T21:49:30.284Z,28.30
2019-05-18T21:51:57.362Z,27.42
2019-05-18T21:54:24.420Z,28.42
2019-05-18T21:56:51.351Z,29.55
2019-05-18T21:59:18.300Z,29.98
2019-05-18T22:01:45.199Z,30.80
2019-05-18T22:04:12.251Z,29.27
2019-05-18T22:06:39.948Z,28.25
2019-05-18T22:09:07.183Z,29.18
2019-05-18T22:11:34.591Z,29.27
2019-05-18T22:14:03.564Z,31.40
2019-05-18T22:16:30.742Z,31.85
2019-05-18T22:18:57.733Z,30.27
2019-05-18T22:21:24.947Z,28.70
2019-05-18T22:23:52.440Z,28.45
2019-05-18T22:26:19.868Z,27.02
2019-05-18T22:28:47.210Z,26.30
2019-05-18T22:31:14.764Z,26.65
2019-05-18T22:33:42.277Z,25.15
2019-05-18T22:36:09.793Z,22.37
2019-05-18T22:38:36.822Z,22.17
2019-05-18T22:41:03.944Z,22.52
2019-05-18T22:43:30.887Z,25.45
2019-05-18T22:45:58.044Z,24.43
2019-05-18T22:48:39.997Z,22.48
2019-05-18T22:50:54.523Z,23.90
2019-05-18T22:53:21.919Z,24.32
2019-05-18T22:55:48.879Z,21.55
2019-05-18T22:58:15.830Z,21.77
2019-05-18T23:00:43.057Z,19.95
2019-05-18T23:03:10.131Z,22.75
2019-05-18T23:05:37.752Z,22.82
2019-05-18T23:08:04.952Z,26.12
2019-05-18T23:10:32.032Z,23.40
2019-05-18T23:12:59.184Z,23.87
2019-05-18T23:15:26.459Z,23.75
2019-05-18T23:17:53.464Z,24.35
2019-05-18T23:20:20.787Z,22.50
2019-05-18T23:22:47.857Z,23.75
2019-05-18T23:25:15.070Z,23.30
2019-05-18T23:27:42.248Z,23.35
2019-05-18T23:30:10.008Z,25.45
2019-05-18T23:32:38.725Z,23.52
2019-05-18T23:35:06.160Z,23.85
2019-05-18T23:37:33.307Z,24.30
2019-05-18T23:40:00.608Z,23.18
2019-05-18T23:42:27.774Z,22.55
2019-05-18T23:44:54.840Z,23.02
2019-05-18T23:47:22.977Z,22.70
2019-05-18T23:49:50.075Z,23.30
2019-05-18T23:52:17.768Z,20.50
2019-05-18T23:54:45.243Z,20.08
2019-05-18T23:57:12.277Z,21.48
2019-05-18T23:59:39.547Z,21.57
